createdAt,value
2022-10-07T00:01:11.607Z,98855.69
2022-10-07T00:03:42.089Z,98861.75
2022-10-07T00:06:14.389Z,98860.84
2022-10-07T00:08:44.706Z,98858.28
2022-10-07T00:11:14.405Z,98860.09
2022-10-07T00:13:44.741Z,98862.66
2022-10-07T00:16:14.574Z,98861.69
2022-10-07T00:18:45.443Z,98859.09
2022-10-07T00:21:17.556Z,98859.88
2022-10-07T00:23:47.614Z,98859.06
2022-10-07T00:26:18.389Z,98855.63
2022-10-07T00:28:47.186Z,98852.13
2022-10-07T00:31:17.569Z,98853.75
2022-10-07T00:33:47.448Z,98850.16
2022-10-07T00:36:18.956Z,98848.41
2022-10-07T00:38:51.690Z,98844.09
2022-10-07T00:41:23.535Z,98848.28
2022-10-07T00:43:51.837Z,98846.53
2022-10-07T00:46:26.870Z,98845.66
2022-10-07T00:48:57.129Z,98832.56
2022-10-07T00:51:25.521Z,98828.06
2022-10-07T00:53:55.081Z,98827.25
2022-10-07T00:56:24.169Z,98823.72
2022-10-07T00:58:53.733Z,98816.91
2022-10-07T01:01:22.390Z,98814.28
2022-10-07T01:03:50.800Z,98816.00
2022-10-07T01:06:20.807Z,98815.81
2022-10-07T01:08:50.453Z,98811.75
2022-10-07T01:11:29.173Z,98811.66
2022-10-07T01:14:05.207Z,98809.09
2022-10-07T01:16:38.825Z,98809.25
2022-10-07T01:19:17.699Z,98807.56
2022-10-07T01:21:54.457Z,98807.31
2022-10-07T01:24:27.808Z,98802.06
2022-10-07T01:27:03.297Z,98802.03
2022-10-07T01:29:35.495Z,98794.38
2022-10-07T01:32:06.868Z,98794.59
2022-10-07T01:34:36.101Z,98798.91
2022-10-07T01:37:06.997Z,98788.50
2022-10-07T01:39:40.341Z,98792.75
2022-10-07T01:42:10.179Z,98792.72
2022-10-07T01:44:39.313Z,98789.28
2022-10-07T01:47:07.557Z,98785.66
2022-10-07T01:49:37.146Z,98783.72
2022-10-07T01:52:15.827Z,98781.34
2022-10-07T01:55:01.957Z,98775.47
2022-10-07T01:57:36.858Z,98774.50
2022-10-07T02:00:10.142Z,98778.72
2022-10-07T02:03:03.444Z,98776.03
2022-10-07T02:05:38.827Z,98767.16
2022-10-07T02:08:20.344Z,98774.97
2022-10-07T02:11:01.866Z,98771.78
2022-10-07T02:13:36.370Z,98762.22
2022-10-07T02:16:10.236Z,98760.44
2022-10-07T02:18:39.740Z,98762.06
2022-10-07T02:21:09.444Z,98771.66
2022-10-07T02:23:39.148Z,98765.72
2022-10-07T02:26:09.327Z,98762.44
2022-10-07T02:28:40.483Z,98762.66
2022-10-07T02:31:10.274Z,98761.53
2022-10-07T02:33:41.045Z,98758.25
2022-10-07T02:36:12.773Z,98760.66
2022-10-07T02:38:42.218Z,98761.53
2022-10-07T02:41:31.248Z,98766.75
2022-10-07T02:44:15.431Z,98759.94
2022-10-07T02:46:47.298Z,98764.25
2022-10-07T02:49:17.924Z,98750.38
2022-10-07T02:51:48.733Z,98758.13
2022-10-07T02:54:24.113Z,98748.81
2022-10-07T02:56:52.936Z,98752.31
2022-10-07T02:59:22.795Z,98751.38
2022-10-07T03:01:55.441Z,98744.59
2022-10-07T03:04:24.127Z,98742.91
2022-10-07T03:06:53.702Z,98740.91
2022-10-07T03:09:21.964Z,98745.38
2022-10-07T03:11:50.509Z,98732.75
2022-10-07T03:14:19.087Z,98719.97
2022-10-07T03:16:50.083Z,98721.31
2022-10-07T03:19:19.296Z,98714.91
2022-10-07T03:21:54.109Z,98729.25
2022-10-07T03:24:22.551Z,98722.16
2022-10-07T03:26:51.628Z,98725.56
2022-10-07T03:29:20.414Z,98735.81
2022-10-07T03:31:50.041Z,98729.00
2022-10-07T03:34:18.398Z,98726.44
2022-10-07T03:36:49.276Z,98727.16
2022-10-07T03:39:17.939Z,98728.81
2022-10-07T03:41:48.495Z,98732.13
2022-10-07T03:44:17.248Z,98726.28
2022-10-07T03:46:45.804Z,98723.91
2022-10-07T03:49:15.743Z,98725.03
2022-10-07T03:51:43.938Z,98727.09
2022-10-07T03:54:12.631Z,98729.91
2022-10-07T03:56:41.794Z,98712.63
2022-10-07T03:59:10.205Z,98722.06
2022-10-07T04:01:39.947Z,98717.81
2022-10-07T04:04:09.203Z,98705.44
2022-10-07T04:06:43.499Z,98715.81
2022-10-07T04:09:14.999Z,98705.00
2022-10-07T04:11:43.364Z,98708.25
2022-10-07T04:14:12.639Z,98707.28
2022-10-07T04:16:42.189Z,98707.31
2022-10-07T04:19:13.772Z,98706.34
2022-10-07T04:21:44.808Z,98702.81
2022-10-07T04:24:13.253Z,98694.03
2022-10-07T04:26:41.537Z,98701.84
2022-10-07T04:29:10.139Z,98696.63
2022-10-07T04:31:38.616Z,98700.22
2022-10-07T04:34:07.796Z,98691.69
2022-10-07T04:36:40.085Z,98690.06
2022-10-07T04:39:12.386Z,98692.47
2022-10-07T04:41:55.112Z,98688.97
2022-10-07T04:44:28.625Z,98688.44
2022-10-07T04:47:05.566Z,98692.47
2022-10-07T04:49:34.497Z,98694.91
2022-10-07T04:52:05.414Z,98690.94
2022-10-07T04:54:39.471Z,98697.88
2022-10-07T04:57:10.079Z,98693.56
2022-10-07T04:59:42.665Z,98692.13
2022-10-07T05:02:14.494Z,98693.50
2022-10-07T05:04:44.312Z,98689.31
2022-10-07T05:07:13.285Z,98692.84
2022-10-07T05:09:43.117Z,98690.19
2022-10-07T05:12:11.502Z,98694.69
2022-10-07T05:14:41.801Z,98693.22
2022-10-07T05:17:11.300Z,98694.78
2022-10-07T05:19:39.869Z,98694.69
2022-10-07T05:22:08.630Z,98688.06
2022-10-07T05:24:36.989Z,98693.50
2022-10-07T05:27:06.757Z,98688.16
2022-10-07T05:29:35.288Z,98688.97
2022-10-07T05:32:05.245Z,98688.22
2022-10-07T05:34:34.785Z,98680.59
2022-10-07T05:37:03.082Z,98681.66
2022-10-07T05:39:31.443Z,98679.41
2022-10-07T05:42:09.554Z,98666.50
2022-10-07T05:44:44.108Z,98673.66
2022-10-07T05:47:14.280Z,98667.56
2022-10-07T05:49:42.823Z,98664.88
2022-10-07T05:52:11.193Z,98673.56
2022-10-07T05:54:40.318Z,98667.50
2022-10-07T05:57:11.166Z,98668.22
2022-10-07T05:59:39.391Z,98663.84
2022-10-07T06:02:08.485Z,98675.97
2022-10-07T06:04:37.333Z,98676.03
2022-10-07T06:07:07.687Z,98687.28
2022-10-07T06:10:05.689Z,98676.91
2022-10-07T06:12:53.688Z,98686.44
2022-10-07T06:15:21.953Z,98686.56
2022-10-07T06:17:50.641Z,98684.81
2022-10-07T06:20:20.929Z,98677.81
2022-10-07T06:22:50.797Z,98686.47
2022-10-07T06:25:20.461Z,98689.13
2022-10-07T06:27:54.339Z,98690.84
2022-10-07T06:30:25.493Z,98684.84
2022-10-07T06:32:54.479Z,98687.47
2022-10-07T06:35:23.327Z,98687.53
2022-10-07T06:37:53.890Z,98680.63
2022-10-07T06:40:22.733Z,98688.47
2022-10-07T06:42:52.501Z,98689.41
2022-10-07T06:45:31.575Z,98682.53
2022-10-07T06:48:00.929Z,98677.41
2022-10-07T06:50:30.211Z,98685.22
2022-10-07T06:52:58.798Z,98679.19
2022-10-07T06:55:29.322Z,98677.59
2022-10-07T06:57:59.184Z,98677.72
2022-10-07T07:00:27.877Z,98672.63
2022-10-07T07:02:56.608Z,98672.66
2022-10-07T07:05:25.174Z,98671.94
2022-10-07T07:07:53.825Z,98669.38
2022-10-07T07:10:23.110Z,98671.16
2022-10-07T07:12:54.377Z,98666.00
2022-10-07T07:15:24.555Z,98662.78
2022-10-07T07:17:52.943Z,98645.50
2022-10-07T07:20:22.179Z,98652.44
2022-10-07T07:22:52.529Z,98643.75
2022-10-07T07:25:21.779Z,98643.78
2022-10-07T07:27:56.767Z,98631.63
2022-10-07T07:30:27.995Z,98646.38
2022-10-07T07:32:57.929Z,98644.66
2022-10-07T07:35:27.780Z,98644.66
2022-10-07T07:37:56.196Z,98653.31
2022-10-07T07:40:24.905Z,98650.69
2022-10-07T07:42:55.860Z,98645.50
2022-10-07T07:45:24.719Z,98639.41
2022-10-07T07:47:54.626Z,98632.47
2022-10-07T07:50:27.198Z,98629.00
2022-10-07T07:52:57.759Z,98624.66
2022-10-07T07:55:26.978Z,98615.03
2022-10-07T07:57:55.532Z,98612.34
2022-10-07T08:00:24.103Z,98606.16
2022-10-07T08:03:02.460Z,98597.28
2022-10-07T08:05:31.069Z,98597.19
2022-10-07T08:08:01.123Z,98592.66
2022-10-07T08:10:30.312Z,98588.06
2022-10-07T08:12:58.784Z,98572.25
2022-10-07T08:15:27.235Z,98577.31
2022-10-07T08:17:55.729Z,98569.41
2022-10-07T08:20:25.676Z,98565.25
2022-10-07T08:22:58.839Z,98564.47
2022-10-07T08:25:29.759Z,98572.41
2022-10-07T08:28:01.346Z,98565.44
2022-10-07T08:30:30.365Z,98555.69
2022-10-07T08:33:01.489Z,98553.06
2022-10-07T08:35:31.496Z,98545.38
2022-10-07T08:37:59.876Z,98538.38
2022-10-07T08:40:28.295Z,98543.34
2022-10-07T08:42:56.723Z,98536.13
2022-10-07T08:45:31.929Z,98536.19
2022-10-07T08:48:05.065Z,98530.63
2022-10-07T08:50:41.799Z,98522.75
2022-10-07T08:53:16.044Z,98529.38
2022-10-07T08:55:49.822Z,98523.25
2022-10-07T08:58:49.323Z,98518.75
2022-10-07T09:01:28.772Z,98513.66
2022-10-07T09:04:07.665Z,98506.44
2022-10-07T09:06:40.320Z,98501.41
2022-10-07T09:09:14.237Z,98498.63
2022-10-07T09:11:43.657Z,98494.31
2022-10-07T09:14:21.620Z,98495.34
2022-10-07T09:16:51.459Z,98490.31
2022-10-07T09:19:26.903Z,98492.28
2022-10-07T09:22:01.213Z,98484.97
2022-10-07T09:24:32.384Z,98487.44
2022-10-07T09:27:02.566Z,98479.88
2022-10-07T09:29:32.047Z,98478.47
2022-10-07T09:32:00.813Z,98478.97
2022-10-07T09:34:30.696Z,98470.75
2022-10-07T09:37:21.866Z,98461.31
2022-10-07T09:39:52.048Z,98461.66
2022-10-07T09:42:30.947Z,98462.31
2022-10-07T09:45:02.807Z,98453.25
2022-10-07T09:47:37.397Z,98446.78
2022-10-07T09:50:06.157Z,98445.03
2022-10-07T09:52:36.104Z,98442.41
2022-10-07T09:55:38.500Z,98438.19
2022-10-07T09:58:08.251Z,98433.44
2022-10-07T10:00:43.520Z,98433.31
2022-10-07T10:03:12.085Z,98429.44
2022-10-07T10:05:41.654Z,98425.06
2022-10-07T10:08:23.980Z,98418.78
2022-10-07T10:10:53.963Z,98406.69
2022-10-07T10:13:28.374Z,98411.53
2022-10-07T10:15:56.824Z,98414.78
2022-10-07T10:18:37.528Z,98407.13
2022-10-07T10:21:17.432Z,98408.00
2022-10-07T10:23:48.985Z,98400.88
2022-10-07T10:26:33.845Z,98404.75
2022-10-07T10:29:11.585Z,98404.09
2022-10-07T10:32:00.158Z,98386.25
2022-10-07T10:34:35.347Z,98393.38
2022-10-07T10:37:13.775Z,98389.19
2022-10-07T10:39:57.635Z,98389.81
2022-10-07T10:42:31.570Z,98391.31
2022-10-07T10:45:11.730Z,98373.50
2022-10-07T10:48:00.876Z,98377.66
2022-10-07T10:50:33.553Z,98370.75
2022-10-07T10:53:10.100Z,98363.78
2022-10-07T10:56:03.392Z,98357.75
2022-10-07T10:58:38.294Z,98354.69
2022-10-07T11:01:14.525Z,98353.72
2022-10-07T11:04:20.877Z,98344.72
2022-10-07T11:06:52.867Z,98341.19
2022-10-07T11:09:30.812Z,98347.59
2022-10-07T11:12:03.327Z,98330.53
2022-10-07T11:14:32.124Z,98326.34
2022-10-07T11:17:04.175Z,98333.63
2022-10-07T11:19:36.000Z,98317.16
2022-10-07T11:22:05.557Z,98317.84
2022-10-07T11:24:38.284Z,98313.91
2022-10-07T11:27:14.071Z,98303.06
2022-10-07T11:29:49.416Z,98298.84
2022-10-07T11:32:21.904Z,98288.44
2022-10-07T11:34:54.710Z,98291.13
2022-10-07T11:37:28.358Z,98285.03
2022-10-07T11:39:57.414Z,98277.09
2022-10-07T11:42:29.471Z,98272.59
2022-10-07T11:45:02.675Z,98270.25
2022-10-07T11:47:35.597Z,98270.31
2022-10-07T11:50:07.911Z,98260.16
2022-10-07T11:52:41.428Z,98264.94
2022-10-07T11:55:12.161Z,98260.28
2022-10-07T11:57:44.046Z,98259.16
2022-10-07T12:00:25.165Z,98251.81
2022-10-07T12:02:53.630Z,98250.22
2022-10-07T12:06:06.587Z,98239.63
2022-10-07T12:08:36.468Z,98241.16
2022-10-07T12:11:44.919Z,98239.75
2022-10-07T12:14:35.859Z,98233.91
2022-10-07T12:17:24.398Z,98222.94
2022-10-07T12:20:29.939Z,98227.34
2022-10-07T12:23:32.328Z,98214.47
2022-10-07T12:26:06.899Z,98207.69
2022-10-07T12:28:40.123Z,98201.69
2022-10-07T12:31:46.925Z,98203.91
2022-10-07T12:34:23.562Z,98198.72
2022-10-07T12:36:52.068Z,98190.38
2022-10-07T12:39:37.364Z,98190.38
2022-10-07T12:42:08.601Z,98181.06
2022-10-07T12:44:39.566Z,98183.84
2022-10-07T12:47:18.190Z,98174.69
2022-10-07T12:49:49.729Z,98167.19
2022-10-07T12:52:22.976Z,98171.59
2022-10-07T12:54:54.181Z,98167.00
2022-10-07T12:57:24.323Z,98163.44
2022-10-07T13:00:00.625Z,98155.47
2022-10-07T13:03:00.104Z,98158.50
2022-10-07T13:06:06.705Z,98160.41
2022-10-07T13:09:16.223Z,98157.16
2022-10-07T13:12:16.489Z,98149.91
2022-10-07T13:14:53.338Z,98143.53
2022-10-07T13:17:29.923Z,98141.38
2022-10-07T13:20:07.932Z,98140.09
2022-10-07T13:22:37.465Z,98141.09
2022-10-07T13:25:08.853Z,98141.19
2022-10-07T13:27:38.753Z,98135.97
2022-10-07T13:30:08.502Z,98133.94
2022-10-07T13:32:37.170Z,98128.66
2022-10-07T13:35:27.566Z,98125.16
2022-10-07T13:37:56.242Z,98117.78
2022-10-07T13:40:28.304Z,98107.84
2022-10-07T13:42:59.313Z,98111.56
2022-10-07T13:45:28.475Z,98112.66
2022-10-07T13:47:57.843Z,98104.06
2022-10-07T13:50:30.829Z,98095.16
2022-10-07T13:52:59.885Z,98104.03
2022-10-07T13:55:29.499Z,98087.03
2022-10-07T13:58:00.677Z,98089.13
2022-10-07T14:00:29.849Z,98083.97
2022-10-07T14:02:58.307Z,98086.59
2022-10-07T14:05:29.737Z,98087.09
2022-10-07T14:08:00.060Z,98094.25
2022-10-07T14:10:29.800Z,98075.97
2022-10-07T14:12:59.153Z,98091.41
2022-10-07T14:15:29.464Z,98084.56
2022-10-07T14:17:59.800Z,98072.75
2022-10-07T14:20:31.896Z,98074.41
2022-10-07T14:23:02.003Z,98073.16
2022-10-07T14:25:31.892Z,98069.13
2022-10-07T14:28:09.213Z,98062.06
2022-10-07T14:30:57.260Z,98062.53
2022-10-07T14:33:48.991Z,98071.22
2022-10-07T14:36:20.397Z,98061.22
2022-10-07T14:38:50.474Z,98062.91
2022-10-07T14:41:20.090Z,98057.69
2022-10-07T14:43:50.323Z,98054.34
2022-10-07T14:46:20.008Z,98050.53
2022-10-07T14:48:49.424Z,98054.28
2022-10-07T14:51:21.010Z,98050.75
2022-10-07T14:53:51.660Z,98052.09
2022-10-07T14:56:24.829Z,98060.59
2022-10-07T14:58:53.127Z,98054.63
2022-10-07T15:01:21.569Z,98047.25
2022-10-07T15:03:50.437Z,98052.63
2022-10-07T15:06:21.233Z,98045.56
2022-10-07T15:08:50.194Z,98053.03
2022-10-07T15:11:20.468Z,98045.47
2022-10-07T15:13:50.201Z,98044.75
2022-10-07T15:16:20.812Z,98033.25
2022-10-07T15:18:52.499Z,98044.22
2022-10-07T15:21:23.522Z,98033.97
2022-10-07T15:23:53.161Z,98036.44
2022-10-07T15:26:24.364Z,98033.16
2022-10-07T15:28:54.390Z,98032.53
2022-10-07T15:31:23.553Z,98037.44
2022-10-07T15:33:51.989Z,98040.53
2022-10-07T15:36:20.381Z,98038.25
2022-10-07T15:38:50.358Z,98036.75
2022-10-07T15:41:33.976Z,98043.28
2022-10-07T15:44:04.939Z,98042.13
2022-10-07T15:46:33.362Z,98045.25
2022-10-07T15:49:02.291Z,98044.13
2022-10-07T15:51:31.667Z,98054.44
2022-10-07T15:54:01.473Z,98053.34
2022-10-07T15:56:30.053Z,98054.09
2022-10-07T15:59:00.618Z,98057.69
2022-10-07T16:01:31.937Z,98061.97
2022-10-07T16:04:01.594Z,98069.31
2022-10-07T16:06:32.693Z,98064.94
2022-10-07T16:09:03.130Z,98071.34
2022-10-07T16:11:33.178Z,98063.22
2022-10-07T16:14:02.622Z,98072.50
2022-10-07T16:16:32.632Z,98067.75
2022-10-07T16:19:01.668Z,98075.50
2022-10-07T16:21:31.340Z,98069.97
2022-10-07T16:24:02.725Z,98082.28
2022-10-07T16:26:33.917Z,98086.84
2022-10-07T16:29:20.473Z,98079.13
2022-10-07T16:31:50.333Z,98087.31
2022-10-07T16:34:20.938Z,98081.53
2022-10-07T16:36:49.745Z,98085.47
2022-10-07T16:39:21.462Z,98094.13
2022-10-07T16:41:51.364Z,98095.34
2022-10-07T16:44:20.545Z,98094.63
2022-10-07T16:46:49.729Z,98098.44
2022-10-07T16:49:19.422Z,98099.53
2022-10-07T16:51:47.895Z,98103.25
2022-10-07T16:54:17.944Z,98104.06
2022-10-07T16:56:50.011Z,98106.84
2022-10-07T16:59:23.199Z,98115.72
2022-10-07T17:01:53.354Z,98111.34
2022-10-07T17:04:21.947Z,98119.28
2022-10-07T17:06:50.297Z,98118.59
2022-10-07T17:09:18.740Z,98115.25
2022-10-07T17:11:48.444Z,98113.47
2022-10-07T17:14:18.818Z,98121.44
2022-10-07T17:16:48.728Z,98122.41
2022-10-07T17:19:18.885Z,98119.88
2022-10-07T17:21:48.368Z,98119.94
2022-10-07T17:24:20.143Z,98118.19
2022-10-07T17:26:52.538Z,98119.06
2022-10-07T17:29:22.358Z,98115.59
2022-10-07T17:31:51.348Z,98112.97
2022-10-07T17:34:21.216Z,98116.47
2022-10-07T17:36:49.689Z,98109.56
2022-10-07T17:39:19.229Z,98117.41
2022-10-07T17:41:49.314Z,98115.44
2022-10-07T17:44:17.777Z,98117.25
2022-10-07T17:46:47.017Z,98120.53
2022-10-07T17:49:15.495Z,98121.38
2022-10-07T17:51:44.397Z,98124.97
2022-10-07T17:54:14.056Z,98116.03
2022-10-07T17:56:47.825Z,98123.88
2022-10-07T17:59:18.175Z,98118.50
2022-10-07T18:01:46.425Z,98115.06
2022-10-07T18:04:18.911Z,98123.66
2022-10-07T18:06:50.649Z,98116.81
2022-10-07T18:09:19.599Z,98117.88
2022-10-07T18:12:05.810Z,98115.31
2022-10-07T18:14:54.286Z,98108.25
2022-10-07T18:17:24.916Z,98110.56
2022-10-07T18:19:54.156Z,98109.31
2022-10-07T18:22:24.456Z,98108.41
2022-10-07T18:24:57.266Z,98111.16
2022-10-07T18:27:27.286Z,98100.69
2022-10-07T18:29:58.245Z,98103.25
2022-10-07T18:32:26.704Z,98100.97
2022-10-07T18:34:55.478Z,98096.44
2022-10-07T18:37:24.028Z,98104.50
2022-10-07T18:39:53.004Z,98091.22
2022-10-07T18:42:22.259Z,98091.88
2022-10-07T18:44:52.702Z,98089.94
2022-10-07T18:47:23.073Z,98089.81
2022-10-07T18:49:54.261Z,98100.47
2022-10-07T18:52:26.507Z,98101.94
2022-10-07T18:54:57.826Z,98094.00
2022-10-07T18:57:28.782Z,98102.06
2022-10-07T18:59:59.501Z,98098.69
2022-10-07T19:02:31.176Z,98093.66
2022-10-07T19:05:01.848Z,98098.25
2022-10-07T19:07:31.436Z,98099.72
2022-10-07T19:10:03.114Z,98100.03
2022-10-07T19:12:50.573Z,98094.16
2022-10-07T19:15:26.149Z,98098.41
2022-10-07T19:17:56.584Z,98091.28
2022-10-07T19:20:25.614Z,98091.47
2022-10-07T19:22:54.095Z,98084.63
2022-10-07T19:25:39.719Z,98088.16
2022-10-07T19:28:08.015Z,98087.31
2022-10-07T19:30:37.581Z,98078.75
2022-10-07T19:33:09.152Z,98092.88
2022-10-07T19:35:37.506Z,98088.19
2022-10-07T19:38:07.992Z,98090.22
2022-10-07T19:40:40.783Z,98089.38
2022-10-07T19:43:13.383Z,98094.06
2022-10-07T19:45:43.839Z,98094.97
2022-10-07T19:48:15.136Z,98095.03
2022-10-07T19:50:47.173Z,98096.06
2022-10-07T19:53:20.516Z,98093.34
2022-10-07T19:55:49.967Z,98089.94
2022-10-07T19:58:20.720Z,98091.56
2022-10-07T20:00:49.290Z,98082.00
2022-10-07T20:03:20.275Z,98087.88
2022-10-07T20:05:51.627Z,98084.44
2022-10-07T20:08:21.815Z,98085.72
2022-10-07T20:10:52.421Z,98094.75
2022-10-07T20:13:21.908Z,98099.19
2022-10-07T20:15:50.637Z,98101.25
2022-10-07T20:18:21.136Z,98104.09
2022-10-07T20:20:49.540Z,98101.41
2022-10-07T20:23:18.166Z,98101.53
2022-10-07T20:25:47.039Z,98102.44
2022-10-07T20:28:18.769Z,98102.59
2022-10-07T20:30:47.271Z,98102.72
2022-10-07T20:33:15.910Z,98105.44
2022-10-07T20:35:46.725Z,98111.56
2022-10-07T20:38:15.150Z,98107.13
2022-10-07T20:41:01.006Z,98103.66
2022-10-07T20:43:30.300Z,98108.88
2022-10-07T20:45:59.421Z,98096.84
2022-10-07T20:48:31.685Z,98104.63
2022-10-07T20:51:08.543Z,98101.16
2022-10-07T20:53:37.420Z,98101.25
2022-10-07T20:56:06.063Z,98103.75
2022-10-07T20:58:35.164Z,98090.03
2022-10-07T21:01:08.684Z,98090.06
2022-10-07T21:03:38.237Z,98090.13
2022-10-07T21:06:09.493Z,98092.75
2022-10-07T21:08:38.621Z,98093.69
2022-10-07T21:11:07.704Z,98094.50
2022-10-07T21:13:36.471Z,98087.59
2022-10-07T21:16:06.069Z,98090.28
2022-10-07T21:18:34.711Z,98092.06
2022-10-07T21:21:03.121Z,98092.09
2022-10-07T21:23:32.934Z,98080.00
2022-10-07T21:26:02.655Z,98091.25
2022-10-07T21:28:33.913Z,98089.53
2022-10-07T21:31:03.337Z,98080.09
2022-10-07T21:33:31.987Z,98081.88
2022-10-07T21:36:01.174Z,98085.34
2022-10-07T21:38:29.616Z,98087.09
2022-10-07T21:41:00.527Z,98086.22
2022-10-07T21:43:29.383Z,98086.22
2022-10-07T21:45:59.264Z,98084.44
2022-10-07T21:48:29.530Z,98068.91
2022-10-07T21:50:58.566Z,98063.69
2022-10-07T21:53:27.142Z,98067.09
2022-10-07T21:55:55.846Z,98056.72
2022-10-07T21:58:26.875Z,98055.91
2022-10-07T22:00:55.390Z,98051.56
2022-10-07T22:03:23.789Z,98046.38
2022-10-07T22:05:52.106Z,98048.06
2022-10-07T22:08:37.372Z,98046.38
2022-10-07T22:11:07.463Z,98037.69
2022-10-07T22:13:38.906Z,98040.38
2022-10-07T22:16:12.445Z,98037.81
2022-10-07T22:18:41.387Z,98038.69
2022-10-07T22:21:14.462Z,98036.06
2022-10-07T22:23:43.137Z,98036.03
2022-10-07T22:26:13.629Z,98029.09
2022-10-07T22:28:44.060Z,98030.06
2022-10-07T22:31:13.229Z,98029.19
2022-10-07T22:33:42.386Z,98017.16
2022-10-07T22:36:11.735Z,98017.13
2022-10-07T22:38:40.962Z,98022.34
2022-10-07T22:41:10.694Z,98018.88
2022-10-07T22:43:40.455Z,98012.84
2022-10-07T22:46:11.614Z,98009.44
2022-10-07T22:48:43.204Z,98006.00
2022-10-07T22:51:12.843Z,98011.16
2022-10-07T22:53:43.123Z,98005.19
2022-10-07T22:56:12.985Z,98000.00
2022-10-07T22:58:43.125Z,97999.16
2022-10-07T23:01:14.826Z,98001.81
2022-10-07T23:03:44.325Z,98001.81
2022-10-07T23:06:14.702Z,97997.41
2022-10-07T23:08:43.158Z,97994.00
2022-10-07T23:11:16.173Z,97998.31
2022-10-07T23:13:44.879Z,97995.69
2022-10-07T23:16:16.506Z,97986.22
2022-10-07T23:18:46.357Z,97980.19
2022-10-07T23:21:15.917Z,97989.66
2022-10-07T23:23:46.597Z,97984.44
2022-10-07T23:26:16.611Z,97982.84
2022-10-07T23:28:45.106Z,97982.00
2022-10-07T23:31:15.959Z,97983.69
2022-10-07T23:33:44.314Z,97984.53
2022-10-07T23:36:13.074Z,97983.72
2022-10-07T23:38:44.863Z,97983.72
2022-10-07T23:41:14.184Z,97986.34
2022-10-07T23:43:42.855Z,97983.72
2022-10-07T23:46:14.503Z,97986.31
2022-10-07T23:48:45.111Z,97994.06
2022-10-07T23:51:19.307Z,97984.53
2022-10-07T23:53:48.330Z,97982.81
2022-10-07T23:56:18.689Z,97982.81
2022-10-07T23:58:47.183Z,97973.25
